Time;durP1;ratioP1;P1;durP2;ratioP2;P2;SDS_P1;SDS_P2;PMS_P1;PMS_P2;Temp;Humidity;BMP_temperature;BMP_pressure;BME280_temperature;BME280_humidity;BME280_pressure;Samples;Min_cycle;Max_cycle;Signal;HPM_P1;HPM_P2
2022/09/02 00:02:16;;;;;;;;;;;;;;;;;;5083714;28;19912;-66
2022/09/02 00:04:41;;;;;;;;;;;;;;;;;;5090655;28;19908;-65
2022/09/02 00:07:06;;;;;;;;;;;;;;;;;;5077442;28;19923;-65
2022/09/02 00:09:31;;;;;;;;;;;;;;;;;;5054275;28;19966;-65
2022/09/02 00:11:57;;;;;;;;;;;;;;;;;;5071442;28;19912;-65
2022/09/02 00:14:22;;;;;;;;;;;;;;;;;;5068323;28;19920;-65
2022/09/02 00:16:50;;;;;;;;;;;;;;;;;;5090592;28;19923;-65
2022/09/02 00:19:16;;;;;;;;;;;;;;;;;;5085067;28;19912;-66
2022/09/02 00:21:41;;;;;;;;;;;;;;;;;;5063670;28;19939;-65
2022/09/02 00:24:06;;;;;;;;;;;;;;;;;;5070010;28;20396;-66
2022/09/02 00:26:31;;;;;;;;;;;;;;;;;;5092109;28;20475;-65
2022/09/02 00:28:56;;;;;;;;;;;;;;;;;;5094394;28;19923;-65
2022/09/02 00:31:22;;;;;;;;;;;;;;;;;;5084125;28;19958;-65
2022/09/02 00:33:47;;;;;;;;;;;;;;;;;;5081247;28;19916;-65
2022/09/02 00:36:12;;;;;;;;;;;;;;;;;;5084781;28;20021;-65
2022/09/02 00:38:38;;;;;;;;;;;;;;;;;;5095886;28;19911;-64
2022/09/02 00:41:04;;;;;;;;;;;;;;;;;;5070518;28;20361;-65
2022/09/02 00:43:29;;;;;;;;;;;;;;;;;;5084312;28;20000;-64
2022/09/02 00:45:54;;;;;;;;;;;;;;;;;;5073664;28;19919;-65
2022/09/02 00:48:20;;;;;;;;;;;;;;;;;;5061070;28;19943;-64
2022/09/02 00:50:45;;;;;;;;;;;;;;;;;;5085373;28;19963;-64
2022/09/02 00:53:10;;;;;;;;;;;;;;;;;;5092604;28;19935;-65
2022/09/02 00:55:35;;;;;;;;;;;;;;;;;;5081488;28;19913;-65
2022/09/02 00:58:00;;;;;;;;;;;;;;;;;;5075636;28;19912;-64
2022/09/02 01:00:25;;;;;;;;;;;;;;;;;;5057745;28;19939;-65
2022/09/02 01:02:51;;;;;;;;;;;;;;;;;;5079083;28;19916;-64
2022/09/02 01:05:16;;;;;;;;;;;;;;;;;;5077167;28;19916;-65
2022/09/02 01:07:42;;;;;;;;;;;;;;;;;;5089381;28;19935;-64
2022/09/02 01:10:07;;;;;;;;;;;;;;;;;;5075210;28;19920;-65
2022/09/02 01:12:32;;;;;;;;;;;;;;;;;;5058312;28;19912;-65
2022/09/02 01:14:58;;;;;;;;;;;;;;;;;;5059316;28;19967;-65
2022/09/02 01:17:24;;;;;;;;;;;;;;;;;;5068186;28;20006;-64
2022/09/02 01:19:49;;;;;;;;;;;;;;;;;;5070680;28;19916;-64
2022/09/02 01:22:14;;;;;;;;;;;;;;;;;;5056567;28;19952;-65
2022/09/02 01:24:39;;;;;;;;;;;;;;;;;;5070098;28;20136;-65
2022/09/02 01:27:04;;;;;;;;;;;;;;;;;;5073861;28;19908;-65
2022/09/02 01:29:29;;;;;;;;;;;;;;;;;;5079247;28;20009;-64
2022/09/02 01:31:54;;;;;;;;;;;;;;;;;;5061092;28;20026;-66
2022/09/02 01:34:20;;;;;;;;;;;;;;;;;;5057771;28;19912;-66
2022/09/02 01:36:45;;;;;;;;;;;;;;;;;;5080054;28;19908;-66
2022/09/02 01:39:10;;;;;;;;;;;;;;;;;;5076055;28;19927;-65
2022/09/02 01:41:35;;;;;;;;;;;;;;;;;;5062930;28;20003;-65
2022/09/02 01:44:00;;;;;;;;;;;;;;;;;;5074155;28;19916;-66
2022/09/02 01:46:25;;;;;;;;;;;;;;;;;;5061800;28;19912;-64
2022/09/02 01:48:50;;;;;;;;;;;;;;;;;;5079714;28;19917;-65
2022/09/02 01:51:16;;;;;;;;;;;;;;;;;;5091961;28;20552;-66
2022/09/02 01:53:41;;;;;;;;;;;;;;;;;;5093318;28;19912;-65
2022/09/02 01:56:06;;;;;;;;;;;;;;;;;;5092656;28;20261;-65
2022/09/02 01:58:31;;;;;;;;;;;;;;;;;;5081267;28;20344;-65
2022/09/02 02:00:56;;;;;;;;;;;;;;;;;;5073837;28;20368;-65
2022/09/02 02:03:23;;;;;;;;;;;;;;;;;;5073771;28;19912;-65
2022/09/02 02:05:48;;;;;;;;;;;;;;;;;;5080061;28;19911;-65
2022/09/02 02:08:14;;;;;;;;;;;;;;;;;;5094415;28;19919;-65
2022/09/02 02:10:39;;;;;;;;;;;;;;;;;;5082410;28;19916;-65
2022/09/02 02:13:04;;;;;;;;;;;;;;;;;;5076253;28;19913;-65
2022/09/02 02:15:29;;;;;;;;;;;;;;;;;;5073255;28;20300;-66
2022/09/02 02:17:54;;;;;;;;;;;;;;;;;;5071909;28;19999;-65
2022/09/02 02:20:20;;;;;;;;;;;;;;;;;;5078629;28;19920;-65
2022/09/02 02:22:45;;;;;;;;;;;;;;;;;;5074580;28;20381;-66
2022/09/02 02:25:10;;;;;;;;;;;;;;;;;;5080486;28;20018;-65
2022/09/02 02:27:36;;;;;;;;;;;;;;;;;;5073261;28;19912;-66
2022/09/02 02:30:01;;;;;;;;;;;;;;;;;;5055187;28;19918;-64
2022/09/02 02:32:26;;;;;;;;;;;;;;;;;;5082549;28;19909;-64
2022/09/02 02:34:51;;;;;;;;;;;;;;;;;;5085619;28;19916;-65
2022/09/02 02:37:16;;;;;;;;;;;;;;;;;;5056708;28;19970;-65
2022/09/02 02:39:41;;;;;;;;;;;;;;;;;;5072893;28;19913;-64
2022/09/02 02:42:06;;;;;;;;;;;;;;;;;;5073205;28;19912;-65
2022/09/02 02:44:32;;;;;;;;;;;;;;;;;;5071796;28;20065;-64
2022/09/02 02:46:57;;;;;;;;;;;;;;;;;;5079631;28;20020;-65
2022/09/02 02:49:22;;;;;;;;;;;;;;;;;;5073022;28;19965;-64
2022/09/02 02:51:48;;;;;;;;;;;;;;;;;;5072760;28;20372;-65
2022/09/02 02:54:13;;;;;;;;;;;;;;;;;;5061305;28;19912;-65
2022/09/02 02:56:38;;;;;;;;;;;;;;;;;;5056472;28;19916;-66
2022/09/02 02:59:03;;;;;;;;;;;;;;;;;;5087763;28;19920;-65
2022/09/02 03:01:29;;;;;;;;;;;;;;;;;;5080202;28;19924;-67
2022/09/02 03:03:54;;;;;;;;;;;;;;;;;;5054676;28;19912;-66
2022/09/02 03:06:19;;;;;;;;;;;;;;;;;;5059513;28;19916;-66
2022/09/02 03:08:47;;;;;;;;;;;;;;;;;;5073085;28;19948;-66
2022/09/02 03:11:13;;;;;;;;;;;;;;;;;;5055643;28;19920;-65
2022/09/02 03:13:38;;;;;;;;;;;;;;;;;;5073109;28;19916;-66
2022/09/02 03:16:03;;;;;;;;;;;;;;;;;;5055796;28;19921;-65
2022/09/02 03:18:28;;;;;;;;;;;;;;;;;;5086038;28;19940;-64
2022/09/02 03:20:54;;;;;;;;;;;;;;;;;;5074305;28;19973;-65
2022/09/02 03:23:19;;;;;;;;;;;;;;;;;;5061019;28;19923;-66
2022/09/02 03:25:44;;;;;;;;;;;;;;;;;;5070807;28;20364;-65
2022/09/02 03:28:09;;;;;;;;;;;;;;;;;;5068629;28;20010;-65
2022/09/02 03:30:35;;;;;;;;;;;;;;;;;;5073242;28;19959;-66
2022/09/02 03:33:00;;;;;;;;;;;;;;;;;;5076091;28;19942;-65
2022/09/02 03:35:25;;;;;;;;;;;;;;;;;;5093036;28;19904;-66
2022/09/02 03:37:50;;;;;;;;;;;;;;;;;;5058411;28;19919;-65
2022/09/02 03:40:15;;;;;;;;;;;;;;;;;;5076468;28;19974;-65
2022/09/02 03:42:40;;;;;;;;;;;;;;;;;;5085662;28;19916;-65
2022/09/02 03:45:06;;;;;;;;;;;;;;;;;;5086363;28;19919;-65
2022/09/02 03:47:31;;;;;;;;;;;;;;;;;;5078842;28;20398;-64
2022/09/02 03:49:56;;;;;;;;;;;;;;;;;;5072399;28;20308;-65
2022/09/02 03:52:21;;;;;;;;;;;;;;;;;;5076610;28;20008;-65
2022/09/02 03:54:46;;;;;;;;;;;;;;;;;;5074985;28;19966;-65
2022/09/02 03:57:11;;;;;;;;;;;;;;;;;;5072478;28;20287;-65
2022/09/02 03:59:36;;;;;;;;;;;;;;;;;;5090385;28;20365;-65
2022/09/02 04:02:02;;;;;;;;;;;;;;;;;;5083989;28;19959;-64
2022/09/02 04:04:27;;;;;;;;;;;;;;;;;;5066088;28;19965;-65
2022/09/02 04:06:52;;;;;;;;;;;;;;;;;;5092411;28;19915;-65
2022/09/02 04:09:17;;;;;;;;;;;;;;;;;;5055634;28;19912;-65
2022/09/02 04:11:42;;;;;;;;;;;;;;;;;;5090723;28;19957;-65
2022/09/02 04:14:07;;;;;;;;;;;;;;;;;;5087118;28;19916;-65
2022/09/02 04:16:33;;;;;;;;;;;;;;;;;;5055441;28;20407;-64
2022/09/02 04:19:00;;;;;;;;;;;;;;;;;;5071732;28;20382;-65
2022/09/02 04:21:25;;;;;;;;;;;;;;;;;;5063773;28;20008;-65
2022/09/02 04:23:54;;;;;;;;;;;;;;;;;;5063762;28;20007;-64
2022/09/02 04:26:19;;;;;;;;;;;;;;;;;;5071144;28;19923;-65
2022/09/02 04:28:44;;;;;;;;;;;;;;;;;;5072817;28;19957;-64
2022/09/02 04:31:09;;;;;;;;;;;;;;;;;;5080914;28;20324;-65
2022/09/02 04:33:34;;;;;;;;;;;;;;;;;;5070170;28;19912;-65
2022/09/02 04:35:59;;;;;;;;;;;;;;;;;;5070163;28;19923;-65
2022/09/02 04:38:25;;;;;;;;;;;;;;;;;;5084304;28;19912;-64
2022/09/02 04:40:50;;;;;;;;;;;;;;;;;;5080272;28;20363;-64
2022/09/02 04:43:15;;;;;;;;;;;;;;;;;;5060049;28;19916;-64
2022/09/02 04:45:40;;;;;;;;;;;;;;;;;;5081396;28;19916;-68
2022/09/02 04:48:05;;;;;;;;;;;;;;;;;;5087175;28;19916;-69
2022/09/02 04:50:30;;;;;;;;;;;;;;;;;;5083681;28;19912;-68
2022/09/02 04:52:55;;;;;;;;;;;;;;;;;;5073739;28;20367;-69
2022/09/02 04:55:21;;;;;;;;;;;;;;;;;;5087277;28;20268;-68
2022/09/02 04:57:46;;;;;;;;;;;;;;;;;;5086027;28;20443;-67
2022/09/02 05:00:11;;;;;;;;;;;;;;;;;;5083477;28;19920;-68
2022/09/02 05:02:36;;;;;;;;;;;;;;;;;;5078082;28;19958;-64
2022/09/02 05:05:02;;;;;;;;;;;;;;;;;;5070364;28;19913;-68
2022/09/02 05:07:27;;;;;;;;;;;;;;;;;;5052953;28;20039;-69
2022/09/02 05:09:52;;;;;;;;;;;;;;;;;;5073914;28;19924;-68
2022/09/02 05:12:17;;;;;;;;;;;;;;;;;;5071743;28;19915;-70
2022/09/02 05:14:42;;;;;;;;;;;;;;;;;;5076601;28;19969;-69
2022/09/02 05:17:08;;;;;;;;;;;;;;;;;;5077376;28;19935;-69
2022/09/02 05:19:33;;;;;;;;;;;;;;;;;;5081423;28;20037;-69
2022/09/02 05:22:00;;;;;;;;;;;;;;;;;;5095558;28;20035;-70
2022/09/02 05:24:25;;;;;;;;;;;;;;;;;;5088409;28;20369;-69
2022/09/02 05:26:50;;;;;;;;;;;;;;;;;;5089780;28;19913;-68
2022/09/02 05:29:17;;;;;;;;;;;;;;;;;;5075165;28;19909;-69
2022/09/02 05:31:43;;;;;;;;;;;;;;;;;;5090500;28;19908;-69
2022/09/02 05:34:08;;;;;;;;;;;;;;;;;;5089224;28;19946;-69
2022/09/02 05:36:33;;;;;;;;;;;;;;;;;;5078908;28;19908;-69
2022/09/02 05:38:58;;;;;;;;;;;;;;;;;;5094647;28;20284;-69
2022/09/02 05:41:24;;;;;;;;;;;;;;;;;;5064686;28;20360;-69
2022/09/02 05:43:49;;;;;;;;;;;;;;;;;;5074893;28;19920;-69
2022/09/02 05:46:16;;;;;;;;;;;;;;;;;;5091774;28;19912;-68
2022/09/02 05:51:25;;;;;;;;;;;;;;;;;;5085685;28;19950;-69
2022/09/02 05:53:50;;;;;;;;;;;;;;;;;;5057930;28;19913;-68
2022/09/02 05:56:15;;;;;;;;;;;;;;;;;;5087304;28;19934;-69
2022/09/02 05:58:40;;;;;;;;;;;;;;;;;;5092795;28;19916;-68
2022/09/02 06:01:05;;;;;;;;;;;;;;;;;;5074102;28;20002;-69
2022/09/02 06:03:30;;;;;;;;;;;;;;;;;;5060867;28;19913;-68
2022/09/02 06:05:56;;;;;;;;;;;;;;;;;;5074255;28;19919;-68
2022/09/02 06:08:21;;;;;;;;;;;;;;;;;;5089696;28;19912;-69
2022/09/02 06:10:46;;;;;;;;;;;;;;;;;;5075981;28;20281;-69
2022/09/02 06:13:11;;;;;;;;;;;;;;;;;;5080782;28;20330;-69
2022/09/02 06:15:38;;;;;;;;;;;;;;;;;;5070831;28;19920;-68
2022/09/02 06:18:03;;;;;;;;;;;;;;;;;;5076668;28;19964;-66
2022/09/02 06:20:31;;;;;;;;;;;;;;;;;;5064935;28;19923;-68
2022/09/02 06:22:56;;;;;;;;;;;;;;;;;;5086527;28;19916;-68
2022/09/02 06:25:21;;;;;;;;;;;;;;;;;;5060242;28;19920;-68
2022/09/02 06:27:46;;;;;;;;;;;;;;;;;;5083270;28;19916;-69
2022/09/02 06:30:12;;;;;;;;;;;;;;;;;;5077472;28;19973;-69
2022/09/02 06:32:37;;;;;;;;;;;;;;;;;;5083296;28;19909;-68
2022/09/02 06:35:02;;;;;;;;;;;;;;;;;;5078257;28;19955;-68
2022/09/02 06:37:27;;;;;;;;;;;;;;;;;;5073830;28;20449;-68
2022/09/02 06:39:52;;;;;;;;;;;;;;;;;;5074438;28;19908;-69
2022/09/02 06:42:17;;;;;;;;;;;;;;;;;;5082762;28;19955;-69
2022/09/02 06:44:42;;;;;;;;;;;;;;;;;;5081537;28;19919;-68
2022/09/02 06:47:07;;;;;;;;;;;;;;;;;;5080829;28;20328;-68
2022/09/02 06:49:33;;;;;;;;;;;;;;;;;;5073226;28;20440;-67
2022/09/02 06:51:59;;;;;;;;;;;;;;;;;;5078893;28;20365;-69
2022/09/02 06:54:24;;;;;;;;;;;;;;;;;;5075448;28;19981;-68
2022/09/02 06:56:50;;;;;;;;;;;;;;;;;;5082689;28;20360;-65
2022/09/02 06:59:15;;;;;;;;;;;;;;;;;;5077398;28;20322;-67
2022/09/02 07:01:40;;;;;;;;;;;;;;;;;;5054667;28;19924;-66
2022/09/02 07:06:49;;;;;;;;;;;;;;;;;;5073374;28;20191;-68
2022/09/02 07:09:14;;;;;;;;;;;;;;;;;;5078047;28;20244;-68
2022/09/02 07:11:39;;;;;;;;;;;;;;;;;;5093543;28;19923;-68
2022/09/02 07:14:04;;;;;;;;;;;;;;;;;;5074064;28;20288;-68
2022/09/02 07:16:29;;;;;;;;;;;;;;;;;;5054930;28;20468;-69
2022/09/02 07:18:54;;;;;;;;;;;;;;;;;;5052931;28;20003;-69
2022/09/02 07:21:19;;;;;;;;;;;;;;;;;;5055686;28;19917;-66
2022/09/02 07:23:46;;;;;;;;;;;;;;;;;;5059288;28;21612;-68
2022/09/02 07:26:12;;;;;;;;;;;;;;;;;;5054557;28;19912;-68
2022/09/02 07:28:37;;;;;;;;;;;;;;;;;;5053409;28;20262;-68
2022/09/02 07:31:02;;;;;;;;;;;;;;;;;;5053166;28;19909;-68
2022/09/02 07:33:27;;;;;;;;;;;;;;;;;;5051752;28;20448;-68
2022/09/02 07:35:52;;;;;;;;;;;;;;;;;;5051406;28;19908;-67
2022/09/02 07:38:18;;;;;;;;;;;;;;;;;;5054859;28;20251;-68
2022/09/02 07:40:45;;;;;;;;;;;;;;;;;;5050912;28;19962;-67
2022/09/02 07:43:10;;;;;;;;;;;;;;;;;;5052725;28;20000;-68
2022/09/02 07:45:36;;;;;;;;;;;;;;;;;;5058495;28;20345;-68
2022/09/02 07:48:01;;;;;;;;;;;;;;;;;;5065778;28;19912;-68
2022/09/02 07:50:27;;;;;;;;;;;;;;;;;;5068746;28;19909;-68
2022/09/02 07:52:52;;;;;;;;;;;;;;;;;;5067249;28;19913;-68
2022/09/02 07:55:17;;;;;;;;;;;;;;;;;;5070444;28;19962;-68
2022/09/02 07:57:42;;;;;;;;;;;;;;;;;;5063423;28;20463;-67
2022/09/02 08:00:07;;;;;;;;;;;;;;;;;;5063341;28;19917;-68
2022/09/02 08:02:33;;;;;;;;;;;;;;;;;;5060595;28;20376;-70
2022/09/02 08:04:58;;;;;;;;;;;;;;;;;;5065615;28;19912;-68
2022/09/02 08:07:23;;;;;;;;;;;;;;;;;;5069073;28;20379;-69
2022/09/02 08:09:48;;;;;;;;;;;;;;;;;;5053480;28;20427;-69
2022/09/02 08:12:13;;;;;;;;;;;;;;;;;;5054336;28;20395;-68
2022/09/02 08:14:39;;;;;;;;;;;;;;;;;;5054799;28;19933;-67
2022/09/02 08:17:04;;;;;;;;;;;;;;;;;;5063098;28;19913;-69
2022/09/02 08:19:29;;;;;;;;;;;;;;;;;;5053513;28;20039;-67
2022/09/02 08:21:55;;;;;;;;;;;;;;;;;;5066451;28;19916;-69
2022/09/02 08:24:20;;;;;;;;;;;;;;;;;;5052532;28;19960;-68
2022/09/02 08:26:45;;;;;;;;;;;;;;;;;;5055785;28;19940;-68
2022/09/02 08:29:11;;;;;;;;;;;;;;;;;;5042699;28;19913;-68
2022/09/02 08:31:36;;;;;;;;;;;;;;;;;;5041591;28;19912;-69
2022/09/02 08:34:01;;;;;;;;;;;;;;;;;;5055603;28;19912;-68
2022/09/02 08:36:26;;;;;;;;;;;;;;;;;;5052556;28;19917;-69
2022/09/02 08:38:51;;;;;;;;;;;;;;;;;;5067980;28;19917;-68
2022/09/02 08:41:17;;;;;;;;;;;;;;;;;;5057426;28;19924;-69
2022/09/02 08:43:42;;;;;;;;;;;;;;;;;;5057642;28;19920;-68
2022/09/02 08:46:10;;;;;;;;;;;;;;;;;;5040104;28;19917;-69
2022/09/02 08:48:35;;;;;;;;;;;;;;;;;;5058172;28;19909;-68
2022/09/02 08:51:00;;;;;;;;;;;;;;;;;;5052647;28;19962;-68
2022/09/02 08:53:25;;;;;;;;;;;;;;;;;;5057108;28;19917;-69
2022/09/02 08:55:50;;;;;;;;;;;;;;;;;;5055094;28;19920;-68
2022/09/02 08:58:16;;;;;;;;;;;;;;;;;;5055756;28;19909;-68
2022/09/02 09:00:41;;;;;;;;;;;;;;;;;;5055590;28;19913;-69
2022/09/02 09:03:06;;;;;;;;;;;;;;;;;;5049198;28;19912;-68
2022/09/02 09:05:32;;;;;;;;;;;;;;;;;;5065057;28;19916;-69
2022/09/02 09:07:58;;;;;;;;;;;;;;;;;;5055256;28;20348;-69
2022/09/02 09:10:23;;;;;;;;;;;;;;;;;;5059574;28;19916;-68
2022/09/02 09:12:48;;;;;;;;;;;;;;;;;;5072456;28;20289;-69
2022/09/02 09:15:15;;;;;;;;;;;;;;;;;;5051641;28;19927;-68
2022/09/02 09:17:40;;;;;;;;;;;;;;;;;;5055824;28;19983;-68
2022/09/02 09:20:05;;;;;;;;;;;;;;;;;;5067347;28;19944;-69
2022/09/02 09:22:30;;;;;;;;;;;;;;;;;;5075197;28;20319;-69
2022/09/02 09:24:55;;;;;;;;;;;;;;;;;;5057177;28;19952;-69
2022/09/02 09:27:21;;;;;;;;;;;;;;;;;;5063853;28;19909;-68
2022/09/02 09:29:46;;;;;;;;;;;;;;;;;;5061100;28;20365;-69
2022/09/02 09:32:12;;;;;;;;;;;;;;;;;;5066589;28;19957;-68
2022/09/02 09:34:37;;;;;;;;;;;;;;;;;;5068363;28;20292;-68
2022/09/02 09:37:02;;;;;;;;;;;;;;;;;;5074702;28;20007;-69
2022/09/02 09:39:28;;;;;;;;;;;;;;;;;;5067500;28;19921;-67
2022/09/02 09:41:53;;;;;;;;;;;;;;;;;;5065441;28;19917;-68
2022/09/02 09:44:18;;;;;;;;;;;;;;;;;;5069035;28;20064;-68
2022/09/02 09:46:43;;;;;;;;;;;;;;;;;;5052472;28;19920;-67
2022/09/02 09:49:09;;;;;;;;;;;;;;;;;;5061826;28;19913;-68
2022/09/02 09:51:34;;;;;;;;;;;;;;;;;;5064624;28;19971;-68
2022/09/02 09:53:59;;;;;;;;;;;;;;;;;;5063599;28;19916;-68
2022/09/02 09:56:25;;;;;;;;;;;;;;;;;;5063211;28;20361;-68
2022/09/02 09:58:50;;;;;;;;;;;;;;;;;;5060083;28;20415;-69
2022/09/02 10:01:15;;;;;;;;;;;;;;;;;;5054182;28;19919;-69
2022/09/02 10:03:40;;;;;;;;;;;;;;;;;;5069358;28;19916;-70
2022/09/02 10:06:05;;;;;;;;;;;;;;;;;;5072205;28;20422;-69
2022/09/02 10:08:31;;;;;;;;;;;;;;;;;;5069196;28;19919;-69
2022/09/02 10:10:56;;;;;;;;;;;;;;;;;;5073169;28;19916;-69
2022/09/02 10:13:21;;;;;;;;;;;;;;;;;;5062752;28;20003;-70
2022/09/02 10:15:46;;;;;;;;;;;;;;;;;;5064190;28;19924;-69
2022/09/02 10:18:13;;;;;;;;;;;;;;;;;;5085453;28;19946;-69
2022/09/02 10:20:38;;;;;;;;;;;;;;;;;;5092511;28;19916;-69
2022/09/02 10:23:03;;;;;;;;;;;;;;;;;;5090223;28;20007;-68
2022/09/02 10:25:28;;;;;;;;;;;;;;;;;;5076062;28;20053;-69
2022/09/02 10:27:54;;;;;;;;;;;;;;;;;;5073607;28;19913;-69
2022/09/02 10:30:20;;;;;;;;;;;;;;;;;;5086311;28;20295;-66
2022/09/02 10:32:45;;;;;;;;;;;;;;;;;;5064179;28;19993;-69
2022/09/02 10:35:10;;;;;;;;;;;;;;;;;;5098936;28;20375;-68
2022/09/02 10:37:35;;;;;;;;;;;;;;;;;;5073502;28;19909;-68
2022/09/02 10:40:01;;;;;;;;;;;;;;;;;;5073474;28;19966;-70
2022/09/02 10:42:26;;;;;;;;;;;;;;;;;;5073845;28;20421;-70
2022/09/02 10:44:51;;;;;;;;;;;;;;;;;;5074981;28;19956;-68
2022/09/02 10:47:16;;;;;;;;;;;;;;;;;;5093114;28;20300;-69
2022/09/02 10:49:41;;;;;;;;;;;;;;;;;;5059060;28;20289;-69
2022/09/02 10:52:06;;;;;;;;;;;;;;;;;;5081889;28;19965;-68
2022/09/02 10:54:32;;;;;;;;;;;;;;;;;;5085248;28;19947;-68
2022/09/02 10:56:57;;;;;;;;;;;;;;;;;;5073892;28;20425;-70
2022/09/02 10:59:22;;;;;;;;;;;;;;;;;;5080099;28;19955;-69
2022/09/02 11:01:47;;;;;;;;;;;;;;;;;;5088972;28;19940;-69
2022/09/02 11:04:12;;;;;;;;;;;;;;;;;;5077319;28;19916;-67
2022/09/02 11:06:38;;;;;;;;;;;;;;;;;;5090256;28;20421;-68
2022/09/02 11:09:03;;;;;;;;;;;;;;;;;;5072442;28;20387;-66
2022/09/02 11:11:28;;;;;;;;;;;;;;;;;;5076830;28;20336;-69
2022/09/02 11:13:53;;;;;;;;;;;;;;;;;;5092728;28;20478;-68
2022/09/02 11:16:18;;;;;;;;;;;;;;;;;;5064193;28;19924;-70
2022/09/02 11:18:43;;;;;;;;;;;;;;;;;;5110346;28;20006;-67
2022/09/02 11:21:09;;;;;;;;;;;;;;;;;;5096007;28;19920;-68
2022/09/02 11:23:34;;;;;;;;;;;;;;;;;;5090950;28;19908;-69
2022/09/02 11:26:00;;;;;;;;;;;;;;;;;;5091199;28;19916;-67
2022/09/02 11:28:25;;;;;;;;;;;;;;;;;;5081509;28;19913;-69
2022/09/02 11:30:50;;;;;;;;;;;;;;;;;;5078155;28;19924;-69
2022/09/02 11:33:15;;;;;;;;;;;;;;;;;;5058291;28;20272;-68
2022/09/02 11:35:41;;;;;;;;;;;;;;;;;;5092922;28;20400;-69
2022/09/02 11:38:06;;;;;;;;;;;;;;;;;;5090300;28;19913;-69
2022/09/02 11:40:31;;;;;;;;;;;;;;;;;;5089449;28;20327;-68
2022/09/02 11:42:57;;;;;;;;;;;;;;;;;;5072537;28;19909;-67
2022/09/02 11:45:22;;;;;;;;;;;;;;;;;;5051752;28;20342;-66
2022/09/02 11:47:48;;;;;;;;;;;;;;;;;;5072880;28;19908;-67
2022/09/02 11:50:13;;;;;;;;;;;;;;;;;;5072291;28;20048;-66
2022/09/02 11:52:38;;;;;;;;;;;;;;;;;;5073299;28;19916;-67
2022/09/02 11:55:03;;;;;;;;;;;;;;;;;;5073522;28;19912;-68
2022/09/02 11:57:28;;;;;;;;;;;;;;;;;;5082679;28;19912;-68
2022/09/02 11:59:54;;;;;;;;;;;;;;;;;;5092459;28;19909;-70
2022/09/02 12:02:19;;;;;;;;;;;;;;;;;;5080346;28;19940;-69
2022/09/02 12:04:44;;;;;;;;;;;;;;;;;;5080177;28;19999;-67
2022/09/02 12:07:10;;;;;;;;;;;;;;;;;;5072211;28;19962;-70
2022/09/02 12:09:35;;;;;;;;;;;;;;;;;;5071770;28;19915;-68
2022/09/02 12:12:01;;;;;;;;;;;;;;;;;;5054102;28;19920;-67
2022/09/02 12:14:26;;;;;;;;;;;;;;;;;;5070060;28;19912;-66
2022/09/02 12:16:51;;;;;;;;;;;;;;;;;;5072414;28;19917;-68
2022/09/02 12:19:17;;;;;;;;;;;;;;;;;;5077288;28;20372;-68
2022/09/02 12:21:42;;;;;;;;;;;;;;;;;;5091275;28;19927;-67
2022/09/02 12:24:08;;;;;;;;;;;;;;;;;;5084013;28;19912;-67
2022/09/02 12:26:33;;;;;;;;;;;;;;;;;;5080758;28;21271;-68
2022/09/02 12:28:58;;;;;;;;;;;;;;;;;;5099254;28;20352;-69
2022/09/02 12:31:23;;;;;;;;;;;;;;;;;;5089038;28;19961;-67
2022/09/02 12:33:48;;;;;;;;;;;;;;;;;;5060697;28;19919;-67
2022/09/02 12:36:13;;;;;;;;;;;;;;;;;;5078437;28;19911;-67
2022/09/02 12:38:39;;;;;;;;;;;;;;;;;;5078016;28;19954;-67
2022/09/02 12:41:04;;;;;;;;;;;;;;;;;;5078084;28;19912;-66
2022/09/02 12:43:29;;;;;;;;;;;;;;;;;;5082954;28;20002;-68
2022/09/02 12:45:55;;;;;;;;;;;;;;;;;;5079701;28;19916;-67
2022/09/02 12:48:20;;;;;;;;;;;;;;;;;;5080511;28;20003;-68
2022/09/02 12:50:46;;;;;;;;;;;;;;;;;;5080257;28;19915;-68
2022/09/02 12:53:11;;;;;;;;;;;;;;;;;;5078310;28;19944;-65
2022/09/02 12:55:36;;;;;;;;;;;;;;;;;;5078597;28;20015;-65
2022/09/02 12:58:01;;;;;;;;;;;;;;;;;;5078365;28;20434;-67
2022/09/02 13:00:27;;;;;;;;;;;;;;;;;;5060927;28;19959;-68
2022/09/02 13:02:52;;;;;;;;;;;;;;;;;;5083196;28;19913;-70
2022/09/02 13:05:17;;;;;;;;;;;;;;;;;;5079138;28;19913;-68
2022/09/02 13:07:42;;;;;;;;;;;;;;;;;;5078289;28;19919;-70
2022/09/02 13:10:07;;;;;;;;;;;;;;;;;;5083600;28;20269;-67
2022/09/02 13:12:33;;;;;;;;;;;;;;;;;;5096299;28;19912;-69
2022/09/02 13:14:58;;;;;;;;;;;;;;;;;;5061607;28;19917;-69
2022/09/02 13:17:23;;;;;;;;;;;;;;;;;;5079627;28;20356;-66
2022/09/02 13:19:48;;;;;;;;;;;;;;;;;;5089164;28;19919;-68
2022/09/02 13:22:13;;;;;;;;;;;;;;;;;;5072069;28;19916;-67
2022/09/02 13:24:39;;;;;;;;;;;;;;;;;;5087883;28;19961;-66
2022/09/02 13:27:04;;;;;;;;;;;;;;;;;;5094485;28;19908;-67
2022/09/02 13:29:30;;;;;;;;;;;;;;;;;;5079420;28;19916;-68
2022/09/02 13:31:55;;;;;;;;;;;;;;;;;;5086819;28;19961;-64
2022/09/02 13:34:21;;;;;;;;;;;;;;;;;;5091702;28;19916;-66
2022/09/02 13:36:46;;;;;;;;;;;;;;;;;;5061182;28;19915;-67
2022/09/02 13:39:11;;;;;;;;;;;;;;;;;;5084446;28;19916;-67
2022/09/02 13:41:36;;;;;;;;;;;;;;;;;;5092944;28;19916;-67
2022/09/02 13:44:01;;;;;;;;;;;;;;;;;;5093470;28;20160;-67
2022/09/02 13:46:26;;;;;;;;;;;;;;;;;;5071458;28;19919;-67
2022/09/02 13:48:51;;;;;;;;;;;;;;;;;;5074406;28;19913;-67
2022/09/02 13:51:17;;;;;;;;;;;;;;;;;;5074412;28;19982;-66
2022/09/02 13:53:42;;;;;;;;;;;;;;;;;;5074458;28;20288;-67
2022/09/02 13:56:07;;;;;;;;;;;;;;;;;;5074974;28;20000;-67
2022/09/02 13:58:32;;;;;;;;;;;;;;;;;;5074712;28;19916;-67
2022/09/02 14:00:58;;;;;;;;;;;;;;;;;;5086630;28;19916;-67
2022/09/02 14:03:23;;;;;;;;;;;;;;;;;;5080885;28;19909;-67
2022/09/02 14:05:48;;;;;;;;;;;;;;;;;;5092503;28;19960;-66
2022/09/02 14:08:13;;;;;;;;;;;;;;;;;;5067629;28;19913;-68
2022/09/02 14:10:40;;;;;;;;;;;;;;;;;;5072050;28;19919;-67
2022/09/02 14:13:05;;;;;;;;;;;;;;;;;;5081009;28;19913;-67
2022/09/02 14:15:30;;;;;;;;;;;;;;;;;;5069792;28;19927;-67
2022/09/02 14:17:55;;;;;;;;;;;;;;;;;;5071773;28;20295;-66
2022/09/02 14:20:21;;;;;;;;;;;;;;;;;;5068510;28;19921;-66
2022/09/02 14:22:46;;;;;;;;;;;;;;;;;;5068347;28;19913;-66
2022/09/02 14:25:11;;;;;;;;;;;;;;;;;;5061473;28;19913;-67
2022/09/02 14:27:36;;;;;;;;;;;;;;;;;;5056877;28;19912;-67
2022/09/02 14:30:04;;;;;;;;;;;;;;;;;;5074010;28;19908;-67
2022/09/02 14:32:29;;;;;;;;;;;;;;;;;;5037954;28;19920;-67
2022/09/02 14:34:54;;;;;;;;;;;;;;;;;;5035570;28;19931;-66
2022/09/02 14:37:20;;;;;;;;;;;;;;;;;;5034940;28;20423;-67
2022/09/02 14:39:45;;;;;;;;;;;;;;;;;;5057371;28;19916;-66
2022/09/02 14:42:10;;;;;;;;;;;;;;;;;;5067110;28;19917;-66
2022/09/02 14:44:35;;;;;;;;;;;;;;;;;;5063083;28;19920;-66
2022/09/02 14:47:00;;;;;;;;;;;;;;;;;;5062092;28;20039;-66
2022/09/02 14:49:25;;;;;;;;;;;;;;;;;;5065436;28;19917;-66
2022/09/02 14:51:51;;;;;;;;;;;;;;;;;;5065692;28;19921;-67
2022/09/02 14:54:16;;;;;;;;;;;;;;;;;;5057465;28;20008;-67
2022/09/02 14:56:41;;;;;;;;;;;;;;;;;;5065323;28;19909;-67
2022/09/02 14:59:06;;;;;;;;;;;;;;;;;;5053396;28;19916;-67
2022/09/02 15:01:31;;;;;;;;;;;;;;;;;;5052757;28;20277;-66
2022/09/02 15:03:57;;;;;;;;;;;;;;;;;;5058694;28;20296;-66
2022/09/02 15:06:22;;;;;;;;;;;;;;;;;;5062780;28;19909;-67
2022/09/02 15:08:47;;;;;;;;;;;;;;;;;;5052715;28;19963;-67
2022/09/02 15:11:16;;;;;;;;;;;;;;;;;;5053887;28;19914;-67
2022/09/02 15:13:41;;;;;;;;;;;;;;;;;;5061661;28;20001;-67
2022/09/02 15:16:07;;;;;;;;;;;;;;;;;;5053079;28;21596;-67
2022/09/02 15:18:32;;;;;;;;;;;;;;;;;;5089762;28;20275;-66
2022/09/02 15:20:58;;;;;;;;;;;;;;;;;;5056091;28;19916;-65
2022/09/02 15:23:23;;;;;;;;;;;;;;;;;;5069010;28;20003;-67
2022/09/02 15:25:48;;;;;;;;;;;;;;;;;;5057159;28;19974;-68
2022/09/02 15:28:13;;;;;;;;;;;;;;;;;;5064916;28;19912;-67
2022/09/02 15:30:38;;;;;;;;;;;;;;;;;;5078629;28;20132;-67
2022/09/02 15:33:04;;;;;;;;;;;;;;;;;;5086995;28;20049;-66
2022/09/02 15:35:29;;;;;;;;;;;;;;;;;;5055674;28;20015;-66
2022/09/02 15:37:54;;;;;;;;;;;;;;;;;;5078413;28;19908;-67
2022/09/02 15:40:19;;;;;;;;;;;;;;;;;;5085244;28;20003;-67
2022/09/02 15:42:44;;;;;;;;;;;;;;;;;;5082639;28;19955;-67
2022/09/02 15:45:10;;;;;;;;;;;;;;;;;;5075103;28;19920;-67
2022/09/02 15:47:35;;;;;;;;;;;;;;;;;;5076136;28;19912;-67
2022/09/02 15:50:00;;;;;;;;;;;;;;;;;;5079216;28;20523;-67
2022/09/02 15:52:25;;;;;;;;;;;;;;;;;;5078147;28;19913;-67
2022/09/02 15:54:50;;;;;;;;;;;;;;;;;;5085481;28;19963;-68
2022/09/02 15:57:15;;;;;;;;;;;;;;;;;;5082028;28;19999;-71
2022/09/02 15:59:41;;;;;;;;;;;;;;;;;;5081088;28;20338;-70
2022/09/02 16:02:06;;;;;;;;;;;;;;;;;;5060116;28;20270;-69
2022/09/02 16:04:31;;;;;;;;;;;;;;;;;;5075433;28;20305;-70
2022/09/02 16:06:56;;;;;;;;;;;;;;;;;;5080770;28;19912;-73
2022/09/02 16:09:21;;;;;;;;;;;;;;;;;;5084487;28;19955;-66
2022/09/02 16:11:47;;;;;;;;;;;;;;;;;;5067512;28;19916;-71
2022/09/02 16:14:12;;;;;;;;;;;;;;;;;;5079380;28;19957;-69
2022/09/02 16:16:37;;;;;;;;;;;;;;;;;;5051561;28;20011;-69
2022/09/02 16:19:02;;;;;;;;;;;;;;;;;;5082636;28;19917;-70
2022/09/02 16:21:28;;;;;;;;;;;;;;;;;;5074182;28;19916;-69
2022/09/02 16:23:53;;;;;;;;;;;;;;;;;;5081777;28;19919;-70
2022/09/02 16:26:18;;;;;;;;;;;;;;;;;;5071331;28;19935;-71
2022/09/02 16:28:43;;;;;;;;;;;;;;;;;;5055912;28;19962;-68
2022/09/02 16:31:09;;;;;;;;;;;;;;;;;;5078907;28;20386;-69
2022/09/02 16:33:34;;;;;;;;;;;;;;;;;;5084661;28;19971;-70
2022/09/02 16:35:59;;;;;;;;;;;;;;;;;;5075261;28;19918;-70
2022/09/02 16:38:24;;;;;;;;;;;;;;;;;;5071861;28;20292;-70